Time;durP1;ratioP1;P1;durP2;ratioP2;P2;SDS_P1;SDS_P2;PMS_P1;PMS_P2;Temp;Humidity;BMP_temperature;BMP_pressure;BME280_temperature;BME280_humidity;BME280_pressure;Samples;Min_cycle;Max_cycle;Signal;HPM_P1;HPM_P2
2023/04/02 00:02:20;;;;;;;0.75;0.30;;;9.10;99.90;;;;;;4925549;28;20062;-80
2023/04/02 00:05:17;;;;;;;2.40;0.40;;;8.70;99.90;;;;;;4921977;28;20046;-80
2023/04/02 00:07:50;;;;;;;2.05;0.40;;;9.10;99.90;;;;;;4927300;28;20054;-80
2023/04/02 00:10:34;;;;;;;1.02;0.20;;;8.50;99.90;;;;;;4932053;28;20051;-80
2023/04/02 00:13:12;;;;;;;0.93;0.30;;;9.00;99.90;;;;;;4930976;28;20475;-80
2023/04/02 00:15:43;;;;;;;1.90;0.30;;;8.90;99.90;;;;;;4943672;28;20069;-80
2023/04/02 00:18:17;;;;;;;0.45;0.20;;;9.10;99.90;;;;;;4952510;28;20065;-81
2023/04/02 00:20:55;;;;;;;0.55;0.20;;;9.00;99.90;;;;;;4942976;28;20141;-80
2023/04/02 00:23:22;;;;;;;0.68;0.20;;;9.50;99.90;;;;;;4927142;28;20050;-80
2023/04/02 00:25:50;;;;;;;0.82;0.20;;;9.00;99.90;;;;;;4936684;28;20053;-80
2023/04/02 00:28:20;;;;;;;1.20;0.20;;;9.10;99.90;;;;;;4946137;28;20145;-80
2023/04/02 00:30:51;;;;;;;0.73;0.20;;;9.10;99.90;;;;;;4940685;28;20093;-81
2023/04/02 00:33:22;;;;;;;0.50;0.10;;;9.00;99.90;;;;;;4953802;28;20494;-80
2023/04/02 00:35:52;;;;;;;1.45;0.32;;;9.10;99.90;;;;;;4951846;28;20042;-80
2023/04/02 00:38:28;;;;;;;0.40;0.10;;;9.30;99.90;;;;;;4941874;28;20053;-81
2023/04/02 00:41:02;;;;;;;1.85;0.10;;;9.10;99.90;;;;;;4949024;28;20058;-80
2023/04/02 00:43:34;;;;;;;0.75;0.10;;;10.30;99.90;;;;;;4950785;28;20171;-80
2023/04/02 00:46:09;;;;;;;1.00;0.10;;;9.10;99.90;;;;;;4973968;28;20718;-80
2023/04/02 00:48:41;;;;;;;0.28;0.10;;;9.10;99.90;;;;;;4955351;28;20711;-80
2023/04/02 00:51:12;;;;;;;0.70;0.10;;;9.10;99.90;;;;;;4922959;28;20970;-80
2023/04/02 00:53:40;;;;;;;0.28;0.05;;;9.10;99.90;;;;;;4931583;28;20311;-80
2023/04/02 00:56:17;;;;;;;0.90;0.20;;;9.10;99.90;;;;;;4932689;28;20593;-80
2023/04/02 00:58:51;;;;;;;0.63;0.17;;;9.10;99.90;;;;;;4924633;28;20814;-80
2023/04/02 01:01:22;;;;;;;0.35;0.10;;;9.10;99.90;;;;;;4928601;28;20072;-80
2023/04/02 01:03:56;;;;;;;1.00;0.10;;;9.20;99.90;;;;;;4944968;28;20050;-80
2023/04/02 01:06:33;;;;;;;0.30;0.10;;;9.20;99.90;;;;;;4928866;28;20054;-80
2023/04/02 01:09:11;;;;;;;1.00;0.20;;;9.50;99.90;;;;;;4931602;28;20046;-80
2023/04/02 01:11:38;;;;;;;0.80;0.20;;;9.10;99.90;;;;;;4947417;28;20141;-80
2023/04/02 01:14:24;;;;;;;1.05;0.30;;;9.20;99.90;;;;;;4931966;28;20050;-80
2023/04/02 01:17:07;;;;;;;1.33;0.20;;;9.00;99.90;;;;;;4948985;28;20634;-80
2023/04/02 01:19:41;;;;;;;1.13;0.20;;;9.20;99.90;;;;;;4935838;28;20513;-80
2023/04/02 01:22:34;;;;;;;1.20;0.10;;;9.20;99.90;;;;;;4929149;28;20181;-80
2023/04/02 01:25:05;;;;;;;0.80;0.20;;;9.10;99.90;;;;;;4932608;28;20058;-81
2023/04/02 01:27:42;;;;;;;0.55;0.10;;;9.10;99.90;;;;;;4938755;28;20051;-80
2023/04/02 01:30:11;;;;;;;0.38;0.25;;;9.80;99.90;;;;;;4945454;28;20050;-81
2023/04/02 01:32:40;;;;;;;0.65;0.17;;;9.30;99.90;;;;;;4931112;28;20120;-81
2023/04/02 01:35:09;;;;;;;1.73;0.30;;;9.30;99.90;;;;;;4924359;28;20085;-80
2023/04/02 01:37:36;;;;;;;1.38;0.25;;;9.30;99.90;;;;;;4973991;28;20509;-80
2023/04/02 01:40:16;;;;;;;0.70;0.20;;;9.30;99.90;;;;;;4931147;28;20146;-80
2023/04/02 01:42:49;;;;;;;1.48;0.20;;;9.30;99.90;;;;;;4946217;28;20671;-80
2023/04/02 01:45:20;;;;;;;0.50;0.20;;;9.30;99.90;;;;;;4945637;28;20367;-80
2023/04/02 01:47:50;;;;;;;0.70;0.30;;;9.20;99.90;;;;;;4946909;28;20552;-81
2023/04/02 01:50:31;;;;;;;0.68;0.30;;;9.30;99.90;;;;;;4942733;28;20046;-80
2023/04/02 01:53:08;;;;;;;0.80;0.30;;;9.30;99.90;;;;;;4958181;28;20071;-79
2023/04/02 01:55:53;;;;;;;0.45;0.20;;;9.40;99.90;;;;;;4935560;28;20905;-81
2023/04/02 01:58:26;;;;;;;0.98;0.30;;;9.40;99.90;;;;;;4934110;28;20180;-81
2023/04/02 02:01:02;;;;;;;0.40;0.20;;;9.40;99.90;;;;;;4935398;28;20082;-81
2023/04/02 02:03:35;;;;;;;0.70;0.38;;;9.40;99.90;;;;;;4958033;28;20485;-80
2023/04/02 02:06:05;;;;;;;1.65;0.20;;;10.30;99.90;;;;;;4929849;28;22530;-80
2023/04/02 02:08:59;;;;;;;2.25;0.20;;;9.40;99.90;;;;;;4926464;28;20693;-81
2023/04/02 02:11:30;;;;;;;0.93;0.13;;;9.40;99.90;;;;;;4960986;28;20050;-80
2023/04/02 02:14:01;;;;;;;1.20;0.20;;;9.40;99.90;;;;;;4930728;28;20596;-80
2023/04/02 02:16:30;;;;;;;0.50;0.17;;;9.40;99.90;;;;;;4948802;28;20342;-80
2023/04/02 02:19:03;;;;;;;0.50;0.20;;;9.40;99.90;;;;;;4948024;28;20050;-80
2023/04/02 02:21:31;;;;;;;0.95;0.20;;;9.20;99.90;;;;;;4956744;28;20100;-80
2023/04/02 02:24:00;;;;;;;0.55;0.10;;;9.40;99.90;;;;;;4922062;28;20050;-80
2023/04/02 02:26:34;;;;;;;0.47;0.20;;;9.40;99.90;;;;;;4945406;28;20062;-80
2023/04/02 02:29:06;;;;;;;0.30;0.20;;;9.40;99.90;;;;;;4943117;28;20054;-80
2023/04/02 02:31:36;;;;;;;0.32;0.13;;;8.80;99.90;;;;;;4935378;28;20073;-80
2023/04/02 02:34:12;;;;;;;0.50;0.20;;;10.70;99.90;;;;;;4951129;28;20061;-80
2023/04/02 02:36:49;;;;;;;1.10;0.10;;;9.40;99.90;;;;;;4931815;28;20050;-80
2023/04/02 02:39:37;;;;;;;0.40;0.10;;;9.40;99.90;;;;;;4944343;28;20596;-80
2023/04/02 02:42:10;;;;;;;2.45;0.38;;;9.40;99.90;;;;;;4927616;28;20533;-80
2023/04/02 02:44:43;;;;;;;0.60;0.40;;;9.50;99.90;;;;;;4929430;28;20046;-80
2023/04/02 02:47:22;;;;;;;0.28;0.10;;;9.80;99.90;;;;;;4918179;28;20137;-80
2023/04/02 02:50:03;;;;;;;0.95;0.10;;;9.40;99.90;;;;;;4926566;28;20443;-80
2023/04/02 02:52:35;;;;;;;0.30;0.10;;;9.40;99.90;;;;;;4945805;28;20057;-80
2023/04/02 02:55:23;;;;;;;1.10;0.10;;;9.40;99.90;;;;;;4945117;28;20072;-80
2023/04/02 02:58:09;;;;;;;0.20;0.10;;;9.40;99.90;;;;;;4971764;28;20490;-80
2023/04/02 03:00:48;;;;;;;0.50;0.10;;;9.50;99.90;;;;;;4947803;28;20058;-80
2023/04/02 03:03:20;;;;;;;0.77;0.10;;;9.00;99.90;;;;;;4937990;28;20054;-80
2023/04/02 03:05:55;;;;;;;0.85;0.10;;;9.20;99.90;;;;;;4946478;28;20085;-80
2023/04/02 03:08:48;;;;;;;0.40;0.20;;;9.50;99.90;;;;;;4949009;28;20162;-80
2023/04/02 03:11:30;;;;;;;0.30;0.10;;;9.50;99.90;;;;;;4949183;28;20050;-80
2023/04/02 03:14:09;;;;;;;0.38;0.10;;;9.40;99.90;;;;;;4942391;28;20058;-80
2023/04/02 03:16:44;;;;;;;0.20;0.10;;;9.50;99.90;;;;;;4930041;28;20802;-80
2023/04/02 03:19:35;;;;;;;0.20;0.10;;;8.20;99.90;;;;;;4967870;28;20086;-80
2023/04/02 03:22:11;;;;;;;0.35;0.20;;;9.40;99.90;;;;;;4944400;28;20046;-80
2023/04/02 03:25:05;;;;;;;0.30;0.10;;;8.90;99.90;;;;;;4924442;28;20122;-80
2023/04/02 03:27:38;;;;;;;0.95;0.20;;;9.50;99.90;;;;;;4923970;28;20054;-81
2023/04/02 03:30:25;;;;;;;;;;;9.40;99.90;;;;;;4936851;28;20100;-81
2023/04/02 03:33:08;;;;;;;0.73;0.20;;;9.40;99.90;;;;;;4919136;28;19953;-80
2023/04/02 03:35:53;;;;;;;0.45;0.13;;;9.30;99.90;;;;;;4947086;28;20057;-80
2023/04/02 03:38:50;;;;;;;0.68;0.20;;;9.40;99.90;;;;;;4934079;28;20073;-81
2023/04/02 03:41:40;;;;;;;0.52;0.20;;;9.60;99.90;;;;;;4937765;28;20137;-80
2023/04/02 03:44:27;;;;;;;0.40;0.10;;;9.40;99.90;;;;;;4946824;28;20131;-81
2023/04/02 03:47:23;;;;;;;0.80;0.20;;;9.30;99.90;;;;;;4949960;28;20061;-81
2023/04/02 03:49:59;;;;;;;1.38;0.47;;;9.40;99.90;;;;;;4916833;28;20093;-81
2023/04/02 03:52:28;;;;;;;0.75;0.38;;;9.30;99.90;;;;;;4932875;28;20046;-79
2023/04/02 03:55:01;;;;;;;0.85;0.20;;;9.40;99.90;;;;;;4949334;28;20061;-80
2023/04/02 03:57:41;;;;;;;0.57;0.20;;;9.40;99.90;;;;;;4963452;28;20054;-80
2023/04/02 04:00:15;;;;;;;2.25;0.40;;;9.40;99.90;;;;;;4950639;28;20054;-80
2023/04/02 04:02:53;;;;;;;0.50;0.20;;;9.50;99.90;;;;;;4926539;28;20119;-80
2023/04/02 04:05:34;;;;;;;0.68;0.20;;;9.40;99.90;;;;;;4932832;28;20057;-80
2023/04/02 04:08:11;;;;;;;1.30;0.30;;;9.30;99.90;;;;;;4972277;28;20050;-81
2023/04/02 04:10:43;;;;;;;2.10;0.28;;;9.10;99.90;;;;;;4934124;28;20802;-80
2023/04/02 04:13:21;;;;;;;0.90;0.32;;;9.40;99.90;;;;;;4944508;28;22694;-80
2023/04/02 04:15:59;;;;;;;0.82;0.38;;;9.30;99.90;;;;;;4928161;28;20062;-80
2023/04/02 04:18:36;;;;;;;1.50;0.20;;;9.10;99.90;;;;;;4927481;28;20571;-81
2023/04/02 04:21:36;;;;;;;2.97;0.30;;;9.20;99.90;;;;;;4926390;28;20196;-80
2023/04/02 04:24:23;;;;;;;0.70;0.22;;;9.30;99.90;;;;;;4942986;28;20447;-81
2023/04/02 04:27:33;;;;;;;0.77;0.35;;;9.20;99.90;;;;;;4942907;28;20128;-80
2023/04/02 04:30:13;;;;;;;2.35;0.47;;;9.20;99.90;;;;;;4962928;28;20607;-80
2023/04/02 04:32:48;;;;;;;1.20;0.20;;;8.40;99.90;;;;;;4930001;28;20054;-80
2023/04/02 04:35:33;;;;;;;0.50;0.20;;;8.40;99.90;;;;;;4939975;28;20042;-80
2023/04/02 04:38:16;;;;;;;1.65;0.40;;;9.10;99.90;;;;;;4945206;28;20509;-80
2023/04/02 04:40:57;;;;;;;2.08;0.40;;;9.00;99.90;;;;;;4933790;28;20538;-80
2023/04/02 04:43:54;;;;;;;1.00;0.20;;;9.00;99.90;;;;;;4963074;28;20064;-81
2023/04/02 04:46:32;;;;;;;1.42;0.38;;;9.10;99.90;;;;;;4970498;28;20050;-80
2023/04/02 04:49:22;;;;;;;0.57;0.25;;;8.90;99.90;;;;;;4947025;28;22434;-80
2023/04/02 04:52:16;;;;;;;0.90;0.30;;;9.00;99.90;;;;;;4948269;28;20077;-81
2023/04/02 04:54:46;;;;;;;1.20;0.40;;;9.10;99.90;;;;;;4925832;28;20128;-81
2023/04/02 04:57:40;;;;;;;1.52;0.20;;;9.10;99.90;;;;;;4956661;28;20061;-80
2023/04/02 05:00:12;;;;;;;1.08;0.28;;;9.00;99.90;;;;;;4964642;28;20061;-81
2023/04/02 05:02:56;;;;;;;0.95;0.50;;;9.00;99.90;;;;;;4918288;28;20057;-80
2023/04/02 05:05:30;;;;;;;1.15;0.38;;;9.10;99.90;;;;;;4951285;28;20054;-81
2023/04/02 05:08:14;;;;;;;2.13;0.60;;;9.10;99.90;;;;;;4935248;28;20057;-79
2023/04/02 05:10:48;;;;;;;4.25;0.75;;;9.30;99.90;;;;;;4944635;28;20046;-81
2023/04/02 05:13:35;;;;;;;2.80;0.70;;;9.30;99.90;;;;;;4945978;28;20136;-81
2023/04/02 05:16:11;;;;;;;1.40;0.43;;;9.20;99.90;;;;;;4952242;28;20671;-80
2023/04/02 05:18:48;;;;;;;1.65;0.50;;;9.30;99.90;;;;;;4945035;28;20046;-80
2023/04/02 05:21:38;;;;;;;1.48;0.30;;;9.40;99.90;;;;;;4955450;28;20054;-80
2023/04/02 05:24:33;;;;;;;0.77;0.20;;;9.40;99.90;;;;;;4943929;28;20092;-80
2023/04/02 05:27:11;;;;;;;0.70;0.25;;;9.50;99.90;;;;;;4934616;28;20042;-81
2023/04/02 05:29:43;;;;;;;0.95;0.20;;;9.80;99.90;;;;;;4933448;28;20061;-80
2023/04/02 05:32:20;;;;;;;0.50;0.20;;;9.60;99.90;;;;;;4944659;28;20039;-80
2023/04/02 05:34:53;;;;;;;1.10;0.30;;;9.70;99.90;;;;;;4963603;28;20122;-81
2023/04/02 05:37:29;;;;;;;0.85;0.20;;;9.80;99.90;;;;;;4947642;28;20061;-81
2023/04/02 05:40:12;;;;;;;0.50;0.20;;;9.90;99.90;;;;;;4937059;28;21005;-80
2023/04/02 05:42:47;;;;;;;0.35;0.20;;;9.90;99.90;;;;;;4950249;28;23277;-81
2023/04/02 05:45:35;;;;;;;0.90;0.30;;;10.00;99.90;;;;;;4949490;28;20050;-80
2023/04/02 05:48:19;;;;;;;1.08;0.32;;;9.90;99.90;;;;;;4946743;28;20128;-80
2023/04/02 05:50:51;;;;;;;1.38;0.40;;;10.00;99.90;;;;;;4946310;28;20073;-80
2023/04/02 05:53:41;;;;;;;0.98;0.40;;;9.90;99.90;;;;;;4947453;28;20112;-81
2023/04/02 05:56:28;;;;;;;1.73;0.52;;;10.30;99.90;;;;;;4947994;28;20848;-80
2023/04/02 05:59:10;;;;;;;1.23;0.30;;;10.30;99.90;;;;;;4941344;28;20081;-80
2023/04/02 06:01:54;;;;;;;0.60;0.20;;;10.60;99.90;;;;;;4947842;28;20050;-80
2023/04/02 06:04:55;;;;;;;1.67;0.30;;;10.70;99.90;;;;;;4950419;28;20494;-80
2023/04/02 06:07:40;;;;;;;0.88;0.20;;;10.70;99.90;;;;;;4933075;28;21035;-79
2023/04/02 06:10:30;;;;;;;0.80;0.40;;;11.10;99.90;;;;;;4941774;28;20058;-79
2023/04/02 06:13:18;;;;;;;1.00;0.38;;;11.30;99.90;;;;;;4932640;28;20061;-80
2023/04/02 06:15:46;;;;;;;1.30;0.50;;;11.30;99.70;;;;;;4931578;28;20676;-79
2023/04/02 06:18:27;;;;;;;1.38;0.32;;;11.40;99.10;;;;;;4962491;28;20062;-80
2023/04/02 06:20:55;;;;;;;0.98;0.30;;;11.50;98.30;;;;;;4972052;28;20055;-80
2023/04/02 06:23:31;;;;;;;0.75;0.30;;;11.60;98.30;;;;;;4922725;28;20058;-80
2023/04/02 06:26:14;;;;;;;0.98;0.30;;;11.70;98.30;;;;;;4940676;28;20716;-80
2023/04/02 06:28:46;;;;;;;2.25;0.40;;;11.80;97.20;;;;;;4932593;28;20073;-81
2023/04/02 06:31:41;;;;;;;0.80;0.30;;;11.80;96.90;;;;;;4932650;28;20050;-81
2023/04/02 06:34:16;;;;;;;1.60;0.80;;;12.00;96.70;;;;;;4937662;28;20718;-80
2023/04/02 06:36:54;;;;;;;1.85;0.35;;;12.10;95.80;;;;;;4930875;28;20053;-79
2023/04/02 06:39:26;;;;;;;1.23;0.45;;;12.30;96.00;;;;;;4933243;28;20054;-80
2023/04/02 06:42:03;;;;;;;1.73;0.40;;;12.40;95.90;;;;;;4946280;28;20798;-80
2023/04/02 06:44:50;;;;;;;1.10;0.40;;;12.50;94.90;;;;;;4950983;28;20061;-81
2023/04/02 06:47:42;;;;;;;1.02;0.40;;;12.60;94.40;;;;;;4933053;28;20435;-80
2023/04/02 06:50:22;;;;;;;1.00;0.47;;;12.60;94.10;;;;;;4948314;28;20407;-81
2023/04/02 06:52:56;;;;;;;1.33;0.43;;;12.90;94.20;;;;;;4951987;28;20051;-79
2023/04/02 06:55:51;;;;;;;0.98;0.40;;;13.20;94.00;;;;;;4948030;28;20058;-81
2023/04/02 06:58:23;;;;;;;1.95;0.50;;;13.20;92.80;;;;;;4933229;28;20050;-79
2023/04/02 07:00:52;;;;;;;0.75;0.32;;;12.00;92.80;;;;;;4956207;28;20054;-80
2023/04/02 07:03:30;;;;;;;1.48;0.50;;;13.10;93.30;;;;;;4943272;28;20057;-80
2023/04/02 07:06:19;;;;;;;0.90;0.50;;;12.40;92.80;;;;;;4929528;28;20090;-79
2023/04/02 07:08:49;;;;;;;1.20;0.40;;;12.90;92.60;;;;;;4941259;28;20524;-80
2023/04/02 07:11:21;;;;;;;1.02;0.40;;;13.70;93.10;;;;;;4926590;28;20053;-79
2023/04/02 07:13:51;;;;;;;0.80;0.30;;;13.10;92.50;;;;;;4941145;28;20200;-80
2023/04/02 07:16:27;;;;;;;1.15;0.30;;;13.20;93.10;;;;;;4943016;28;20043;-81
2023/04/02 07:18:57;;;;;;;1.63;0.30;;;13.20;92.90;;;;;;4943881;28;20054;-80
2023/04/02 07:21:27;;;;;;;2.05;0.70;;;13.00;93.30;;;;;;4930937;28;20286;-80
2023/04/02 07:23:55;;;;;;;1.65;0.50;;;13.00;92.40;;;;;;4944951;28;20057;-80
2023/04/02 07:26:26;;;;;;;1.33;0.60;;;13.10;92.30;;;;;;4930781;28;20054;-80
2023/04/02 07:28:55;;;;;;;3.15;0.80;;;13.30;92.30;;;;;;4926291;28;20046;-79
2023/04/02 07:31:25;;;;;;;1.00;0.40;;;13.40;92.10;;;;;;4944971;28;20794;-80
2023/04/02 07:33:57;;;;;;;1.35;0.35;;;13.10;91.80;;;;;;4957998;28;20046;-79
2023/04/02 07:36:25;;;;;;;0.70;0.30;;;13.20;92.30;;;;;;4942986;28;22418;-79
2023/04/02 07:38:52;;;;;;;1.70;0.35;;;13.40;91.70;;;;;;4953292;28;20431;-79
2023/04/02 07:41:20;;;;;;;1.42;0.60;;;13.90;91.60;;;;;;4949752;28;20050;-81
2023/04/02 07:43:48;;;;;;;1.73;0.88;;;14.00;90.80;;;;;;4944963;28;20193;-80
2023/04/02 07:46:17;;;;;;;0.85;0.30;;;14.00;90.20;;;;;;4952250;28;20141;-80
2023/04/02 07:48:46;;;;;;;1.77;0.55;;;13.80;90.80;;;;;;4925943;28;20050;-80
2023/04/02 07:51:26;;;;;;;1.20;0.70;;;13.60;90.90;;;;;;4924527;28;20054;-80
2023/04/02 07:53:56;;;;;;;2.50;0.75;;;13.60;90.90;;;;;;4920687;28;20046;-80
2023/04/02 07:56:24;;;;;;;1.85;0.65;;;13.60;90.80;;;;;;4932565;28;20050;-80
2023/04/02 07:58:52;;;;;;;2.40;0.65;;;13.50;90.70;;;;;;4926982;28;20430;-78
2023/04/02 08:01:22;;;;;;;1.90;0.40;;;13.50;90.80;;;;;;4921963;28;20060;-79
2023/04/02 08:03:50;;;;;;;1.10;0.40;;;13.80;90.70;;;;;;4938009;28;20054;-80
2023/04/02 08:06:21;;;;;;;8.43;1.60;;;14.10;90.80;;;;;;4928070;28;20095;-79
2023/04/02 08:08:49;;;;;;;4.53;0.68;;;14.20;90.30;;;;;;4915207;28;20051;-79
2023/04/02 08:11:16;;;;;;;0.75;0.38;;;14.20;90.20;;;;;;4955815;28;20057;-80
2023/04/02 08:13:44;;;;;;;3.30;1.77;;;14.10;90.10;;;;;;4913648;28;20053;-80
2023/04/02 08:16:12;;;;;;;0.88;0.30;;;14.60;90.00;;;;;;4932087;28;20073;-77
2023/04/02 08:18:40;;;;;;;1.75;0.60;;;14.20;89.80;;;;;;4915054;28;22763;-81
2023/04/02 08:21:09;;;;;;;0.80;0.45;;;14.20;89.70;;;;;;4926960;28;20062;-80
2023/04/02 08:23:37;;;;;;;3.28;1.20;;;14.20;89.60;;;;;;4914720;28;21127;-80
2023/04/02 08:26:05;;;;;;;2.88;1.05;;;13.90;89.90;;;;;;4928430;28;20050;-80
2023/04/02 08:28:33;;;;;;;3.53;2.33;;;14.10;89.90;;;;;;4932086;28;22416;-80
2023/04/02 08:31:03;;;;;;;17.95;13.73;;;14.30;89.80;;;;;;4933963;28;20215;-80
2023/04/02 08:33:31;;;;;;;1.70;1.10;;;14.30;88.60;;;;;;4941641;28;20721;-80
2023/04/02 08:35:58;;;;;;;1.40;0.52;;;14.30;88.50;;;;;;4930223;28;20926;-80
2023/04/02 08:38:26;;;;;;;1.25;0.60;;;14.00;87.90;;;;;;4929224;28;20188;-79
2023/04/02 08:40:58;;;;;;;1.27;0.60;;;14.60;88.50;;;;;;4919399;28;20058;-80
2023/04/02 08:43:37;;;;;;;2.28;0.82;;;14.70;87.50;;;;;;4940493;28;20189;-80
2023/04/02 08:46:41;;;;;;;1.23;0.50;;;14.70;86.10;;;;;;4925142;28;20710;-80
2023/04/02 08:49:15;;;;;;;1.83;0.60;;;14.80;86.40;;;;;;4932922;28;22291;-77
2023/04/02 08:51:44;;;;;;;1.40;0.50;;;14.60;84.80;;;;;;4933862;28;20506;-80
2023/04/02 08:54:27;;;;;;;10.50;5.40;;;14.40;85.10;;;;;;4958046;28;20065;-81
2023/04/02 08:57:28;;;;;;;2.58;0.77;;;14.40;85.50;;;;;;4930180;28;22316;-80
2023/04/02 09:00:19;;;;;;;3.25;0.93;;;14.40;84.50;;;;;;4906144;28;20812;-80
2023/04/02 09:02:59;;;;;;;1.50;0.60;;;14.40;84.80;;;;;;4939921;28;20062;-80
2023/04/02 09:05:32;;;;;;;2.85;1.15;;;14.40;84.70;;;;;;4956058;28;20050;-80
2023/04/02 09:08:04;;;;;;;254.18;97.78;;;14.60;85.30;;;;;;4933236;28;20046;-79
2023/04/02 09:10:38;;;;;;;10.40;8.05;;;14.50;87.40;;;;;;4947958;28;20046;-80
2023/04/02 09:13:27;;;;;;;7.72;6.65;;;14.60;88.50;;;;;;4945898;28;20180;-80
2023/04/02 09:16:07;;;;;;;2.60;2.20;;;14.40;87.20;;;;;;4945264;28;22361;-80
2023/04/02 09:18:36;;;;;;;32.60;17.25;;;14.40;87.00;;;;;;4941695;28;20085;-80
2023/04/02 09:21:21;;;;;;;2.05;1.33;;;14.70;88.10;;;;;;4943378;28;20810;-80
2023/04/02 09:23:49;;;;;;;2.42;1.00;;;14.40;87.40;;;;;;4941769;28;20121;-80
2023/04/02 09:26:22;;;;;;;4.05;2.50;;;14.80;87.00;;;;;;4942712;28;20081;-80
2023/04/02 09:28:52;;;;;;;1.70;0.88;;;14.90;86.00;;;;;;4940889;28;20088;-80
2023/04/02 09:31:29;;;;;;;1.10;0.93;;;14.80;86.50;;;;;;4943831;28;20581;-80
2023/04/02 09:33:57;;;;;;;3.58;2.88;;;14.40;86.90;;;;;;4947111;28;20583;-80
2023/04/02 09:36:34;;;;;;;2.38;1.98;;;14.90;86.60;;;;;;4936776;28;22393;-78
2023/04/02 09:39:19;;;;;;;2.08;1.50;;;15.00;87.70;;;;;;4945790;28;20070;-79
2023/04/02 09:41:49;;;;;;;2.55;1.75;;;15.10;85.90;;;;;;4929617;28;20054;-79
2023/04/02 09:44:32;;;;;;;1.65;1.00;;;15.60;84.80;;;;;;4940181;28;20070;-80
2023/04/02 09:47:05;;;;;;;1.92;1.00;;;15.20;83.60;;;;;;4960565;28;20053;-80
2023/04/02 09:49:38;;;;;;;1.63;1.00;;;15.20;83.10;;;;;;4924012;28;20047;-80
2023/04/02 09:52:27;;;;;;;1.23;0.60;;;15.30;82.20;;;;;;4954397;28;20050;-79
2023/04/02 09:55:16;;;;;;;3.08;0.70;;;15.40;83.30;;;;;;4925869;28;20052;-80
2023/04/02 09:57:46;;;;;;;2.00;1.30;;;15.60;82.50;;;;;;4923456;28;20058;-80
2023/04/02 10:00:20;;;;;;;7.85;3.53;;;15.60;80.70;;;;;;4951522;28;20702;-80
2023/04/02 10:03:06;;;;;;;3.28;1.70;;;15.50;79.30;;;;;;4932230;28;20050;-80
2023/04/02 10:05:34;;;;;;;3.03;2.72;;;15.50;77.80;;;;;;4958098;28;20073;-78
2023/04/02 10:08:17;;;;;;;3.28;2.78;;;15.50;78.80;;;;;;4941586;28;20057;-80
2023/04/02 10:10:51;;;;;;;2.10;0.95;;;15.90;79.00;;;;;;4936398;28;20652;-80
2023/04/02 10:13:27;;;;;;;1.60;0.90;;;15.90;84.00;;;;;;4947154;28;20486;-79
2023/04/02 10:16:04;;;;;;;4.57;1.95;;;15.80;84.50;;;;;;4921303;28;20057;-80
2023/04/02 10:18:58;;;;;;;5.43;3.70;;;15.80;85.80;;;;;;4960066;28;20422;-77
2023/04/02 10:21:31;;;;;;;2.70;1.60;;;15.80;85.60;;;;;;4939958;28;20192;-80
2023/04/02 10:23:58;;;;;;;;;;;15.90;86.80;;;;;;4941257;28;20054;-79
2023/04/02 10:26:35;;;;;;;1.98;0.80;;;16.00;86.80;;;;;;4965366;28;19929;-78
2023/04/02 10:29:14;;;;;;;3.47;1.40;;;15.90;85.90;;;;;;4936278;28;20061;-78
2023/04/02 10:32:04;;;;;;;3.70;1.40;;;15.40;86.90;;;;;;4940761;28;20116;-77
2023/04/02 10:34:42;;;;;;;1.60;1.20;;;15.80;88.20;;;;;;4940194;28;20081;-78
2023/04/02 10:37:34;;;;;;;2.30;1.50;;;16.30;87.50;;;;;;4925332;28;20057;-79
2023/04/02 10:40:15;;;;;;;2.40;1.58;;;16.00;84.10;;;;;;4937313;28;20058;-78
2023/04/02 10:42:55;;;;;;;1.48;1.17;;;15.90;84.20;;;;;;4941536;28;20050;-79
2023/04/02 10:45:45;;;;;;;4.88;1.35;;;15.80;86.20;;;;;;4923758;28;20096;-78
2023/04/02 10:48:33;;;;;;;1.80;1.30;;;16.20;85.30;;;;;;4929340;28;20388;-79
2023/04/02 10:51:22;;;;;;;1.42;0.98;;;16.30;86.10;;;;;;4948678;28;20512;-78
2023/04/02 10:53:57;;;;;;;2.10;1.02;;;16.20;82.40;;;;;;4954964;28;20658;-78
2023/04/02 10:56:25;;;;;;;1.00;0.70;;;16.50;84.10;;;;;;4938029;28;20126;-79
2023/04/02 10:59:00;;;;;;;4.93;2.00;;;17.40;83.70;;;;;;4939443;28;22220;-77
2023/04/02 11:01:30;;;;;;;3.97;2.22;;;16.80;81.90;;;;;;4954644;28;20714;-79
2023/04/02 11:04:21;;;;;;;2.08;1.50;;;16.40;81.10;;;;;;4952163;28;20046;-79
2023/04/02 11:06:55;;;;;;;2.53;1.80;;;16.60;80.00;;;;;;4943527;28;20426;-79
2023/04/02 11:09:42;;;;;;;2.20;1.25;;;16.50;81.70;;;;;;4951189;28;20054;-79
2023/04/02 11:12:30;;;;;;;3.95;1.13;;;16.90;83.60;;;;;;4927603;28;20125;-78
2023/04/02 11:14:58;;;;;;;1.92;1.02;;;16.60;81.40;;;;;;4933902;28;20184;-79
2023/04/02 11:17:25;;;;;;;3.55;1.67;;;16.70;83.50;;;;;;4932180;28;20057;-78
2023/04/02 11:19:53;;;;;;;1.77;1.13;;;16.80;80.80;;;;;;4927354;28;20622;-80
2023/04/02 11:22:24;;;;;;;1.50;1.13;;;16.80;81.00;;;;;;4917039;28;20046;-78
2023/04/02 11:24:53;;;;;;;2.25;1.20;;;16.90;80.30;;;;;;4933997;28;20058;-81
2023/04/02 11:27:29;;;;;;;3.53;1.10;;;17.00;79.90;;;;;;4941720;28;20089;-80
2023/04/02 11:30:17;;;;;;;15.65;12.38;;;16.80;79.00;;;;;;4922871;28;20051;-80
2023/04/02 11:32:48;;;;;;;13.13;8.93;;;17.20;79.10;;;;;;4939801;28;20047;-80
2023/04/02 11:35:30;;;;;;;3.40;2.50;;;16.80;79.90;;;;;;4944888;28;20051;-80
2023/04/02 11:38:10;;;;;;;11.57;8.90;;;16.80;77.80;;;;;;4937863;28;20054;-80
2023/04/02 11:40:46;;;;;;;6.32;4.80;;;16.80;78.20;;;;;;4929755;28;20053;-80
2023/04/02 11:43:31;;;;;;;3.05;2.30;;;16.70;78.00;;;;;;4929229;28;20074;-80
2023/04/02 11:46:15;;;;;;;2.47;2.00;;;17.10;76.30;;;;;;4948729;28;20054;-80
2023/04/02 11:48:43;;;;;;;14.07;12.60;;;17.30;77.40;;;;;;4928406;28;20057;-80
2023/04/02 11:51:19;;;;;;;3.08;0.90;;;17.60;76.90;;;;;;4943279;28;20080;-80
2023/04/02 11:53:49;;;;;;;1.20;0.80;;;17.60;76.40;;;;;;4940465;28;20058;-80
2023/04/02 11:56:28;;;;;;;1.30;0.50;;;16.90;72.70;;;;;;4937674;28;20058;-80
2023/04/02 11:59:22;;;;;;;0.77;0.50;;;17.20;75.20;;;;;;4954568;28;20062;-78
2023/04/02 12:02:10;;;;;;;0.80;0.30;;;17.20;73.40;;;;;;4915125;28;20058;-80
2023/04/02 12:05:08;;;;;;;0.57;0.20;;;17.00;70.90;;;;;;4935326;28;20050;-80
2023/04/02 12:08:15;;;;;;;0.80;0.45;;;16.90;70.00;;;;;;4940220;28;20133;-80
2023/04/02 12:11:01;;;;;;;1.15;0.50;;;16.80;71.80;;;;;;4916667;28;20055;-79
2023/04/02 12:13:41;;;;;;;1.20;0.90;;;16.10;74.80;;;;;;4926188;28;20557;-78
2023/04/02 12:16:10;;;;;;;6.40;5.80;;;15.90;77.30;;;;;;4936574;28;20058;-79
2023/04/02 12:18:58;;;;;;;4.18;3.88;;;16.30;79.70;;;;;;4920400;28;22362;-80
2023/04/02 12:21:29;;;;;;;1.27;1.08;;;15.60;81.30;;;;;;4936684;28;20069;-80
2023/04/02 12:24:00;;;;;;;1.70;1.00;;;15.60;82.10;;;;;;4929931;28;22409;-79
2023/04/02 12:26:36;;;;;;;1.35;0.88;;;15.50;83.50;;;;;;4956417;28;20105;-80
2023/04/02 12:29:25;;;;;;;4.97;1.30;;;15.40;83.90;;;;;;4949236;28;20062;-79
2023/04/02 12:31:54;;;;;;;1.65;1.40;;;15.40;86.30;;;;;;4937680;28;20421;-80
2023/04/02 12:34:24;;;;;;;1.80;1.00;;;15.30;89.50;;;;;;4960134;28;20050;-81
2023/04/02 12:36:54;;;;;;;1.88;1.23;;;15.20;89.40;;;;;;4913184;28;20241;-81
2023/04/02 12:39:22;;;;;;;1.38;0.70;;;15.10;90.10;;;;;;4941652;28;20065;-81
2023/04/02 12:41:55;;;;;;;2.53;1.10;;;15.20;90.00;;;;;;4937672;28;20252;-81
2023/04/02 12:44:25;;;;;;;2.95;1.60;;;15.40;88.90;;;;;;4933820;28;20220;-81
2023/04/02 12:46:54;;;;;;;2.95;2.30;;;15.40;86.90;;;;;;4942454;28;20046;-81
2023/04/02 12:49:32;;;;;;;1.33;1.00;;;15.20;83.40;;;;;;4944710;28;20133;-79
2023/04/02 12:52:11;;;;;;;1.38;0.82;;;15.20;84.40;;;;;;4969600;28;21106;-81
2023/04/02 12:54:46;;;;;;;2.00;0.70;;;15.30;82.40;;;;;;4959162;28;20516;-80
2023/04/02 12:57:26;;;;;;;3.63;1.23;;;15.30;80.60;;;;;;4930531;28;20068;-81
2023/04/02 13:00:04;;;;;;;2.67;0.80;;;15.20;81.40;;;;;;4929588;28;20054;-80
2023/04/02 13:02:46;;;;;;;1.63;0.73;;;15.20;82.00;;;;;;4944188;28;20050;-80
2023/04/02 13:05:35;;;;;;;17.70;7.93;;;15.20;81.20;;;;;;4951367;28;20182;-80
2023/04/02 13:08:04;;;;;;;7.05;2.65;;;14.70;81.70;;;;;;4938395;28;20054;-81
2023/04/02 13:10:38;;;;;;;5.65;2.67;;;15.10;82.20;;;;;;4947898;28;20085;-80
2023/04/02 13:13:13;;;;;;;3.83;1.70;;;15.10;82.90;;;;;;4952649;28;20058;-80
2023/04/02 13:15:45;;;;;;;1.80;0.93;;;15.10;82.20;;;;;;4964048;28;20093;-80
2023/04/02 13:18:20;;;;;;;5.50;2.90;;;15.00;81.60;;;;;;4926046;28;20069;-81
2023/04/02 13:20:58;;;;;;;2.10;0.70;;;15.20;82.40;;;;;;4947727;28;20798;-80
2023/04/02 13:23:29;;;;;;;1.27;0.95;;;15.30;80.70;;;;;;4951974;28;20082;-80
2023/04/02 13:26:09;;;;;;;0.90;0.60;;;15.30;79.70;;;;;;4942979;28;20404;-80
2023/04/02 13:28:37;;;;;;;2.53;1.77;;;15.60;80.30;;;;;;4924551;28;20050;-81
2023/04/02 13:31:05;;;;;;;1.60;0.60;;;16.10;79.10;;;;;;4952087;28;20045;-81
2023/04/02 13:33:33;;;;;;;4.18;1.23;;;16.20;79.10;;;;;;4924923;28;20861;-80
2023/04/02 13:36:00;;;;;;;1.60;0.60;;;16.00;78.10;;;;;;4943965;28;20046;-81
2023/04/02 13:38:28;;;;;;;15.80;4.50;;;15.70;78.70;;;;;;4922968;28;20042;-80
2023/04/02 13:40:55;;;;;;;6.75;2.00;;;15.50;76.50;;;;;;4926720;28;20050;-80
2023/04/02 13:43:23;;;;;;;14.75;8.70;;;15.30;77.10;;;;;;4928621;28;20053;-81